Historique des mesures à Cassis (13260), France
Quotidien Résumé Mars 3, 2018 Unités:  Métrique    US   Métrique/US
« Précédent (Jour)
Suivant (Jour) »
Quotidien Hebdomadaire Mensuel Annuel Période au choix
  Maximum: Minimum: Moyenne:
Température: TemperatureC °C 9.9 °C 12.3 °C
Point de rosée: DewpointC °C 3.6 °C 7.5 °C
Humidité: Humidity % 54 % 70 %
Vitesse du vent: 0 km/h 0 km/h 10.6 km/h
Rafales: 0 km/h - -
Vent:- - SW
Pression: PressurehPa hPa 987.0 hPa -
Précipitations: 2.0 mm    
Historical Graphs
 
 
Mesures pour : Mars 3, 2018
Heure Temperature Point de rosée Pression Vent Vitesse du vent Rafales Humidité Pluie (par heure) Conditions
TemperatureC °C DewpointC °C PressurehPa hPa Calm     Humidity % HourlyPrecipMM mm SoftwareType W/m2
00:12 9.9 °C 3.6 °C 994.1 hPa ESE 7.6 km/h 8.9 km/h 65 % 0.0 mm open2300-1.11 W/m2
01:12 10.6 °C 5.2 °C 993.1 hPa ESE 10.9 km/h 11.6 km/h 69 % 0.0 mm open2300-1.11 W/m2
02:12 9.9 °C 6.8 °C 992.4 hPa SSE 9.8 km/h 9.8 km/h 81 % 0.5 mm open2300-1.11 W/m2
03:12 10.3 °C 7.7 °C 991.1 hPa Calm   2.3 km/h 84 % 0.5 mm open2300-1.11 W/m2
04:12 10.7 °C 8.4 °C 989.7 hPa SSE 6.4 km/h 7.6 km/h 86 % 1.0 mm open2300-1.11 W/m2
05:12 11.3 °C 9.2 °C 988.0 hPa SE 4.2 km/h 9.3 km/h 87 % 0.0 mm open2300-1.11 W/m2
06:12 12.4 °C 10.4 °C 987.7 hPa West 3.4 km/h 16.3 km/h 88 % 0.0 mm open2300-1.11 W/m2
07:12 12.5 °C 10.7 °C 987.0 hPa South 3.4 km/h 5.1 km/h 89 % 0.0 mm open2300-1.11 W/m2
08:12 12.4 °C 10.4 °C 987.7 hPa SSW 6.4 km/h 6.4 km/h 88 % 0.0 mm open2300-1.11 W/m2
09:12 13.3 °C 11.0 °C 988.7 hPa Calm     86 % 0.0 mm open2300-1.11 W/m2
10:12 13.8 °C 10.9 °C 989.7 hPa WNW 12.2 km/h 12.2 km/h 83 % 0.0 mm open2300-1.11 W/m2
11:12 15.1 °C 8.6 °C 991.1 hPa West 27.2 km/h 48.6 km/h 65 % 0.0 mm open2300-1.11 W/m2
12:12 15.2 °C 7.9 °C 991.8 hPa WNW 15.6 km/h 32.3 km/h 62 % 0.0 mm open2300-1.11 W/m2
13:12 14.4 °C 7.9 °C 992.8 hPa WNW 33.6 km/h 34.8 km/h 65 % 0.0 mm open2300-1.11 W/m2
14:12 14.7 °C 8.4 °C 993.1 hPa WNW 39.9 km/h 51 km/h 66 % 0.0 mm open2300-1.11 W/m2
15:12 15.3 °C 8.1 °C 993.1 hPa WNW 40.7 km/h 40.7 km/h 62 % 0.0 mm open2300-1.11 W/m2
16:12 16.1 °C 7.3 °C 993.1 hPa NNW 8.9 km/h 13.2 km/h 56 % 0.0 mm open2300-1.11 W/m2
17:12 15.8 °C 7.3 °C 993.8 hPa North 4.7 km/h 22 km/h 57 % 0.0 mm open2300-1.11 W/m2
18:12 15.1 °C 5.8 °C 995.1 hPa Calm   5.1 km/h 54 % 0.0 mm open2300-1.11 W/m2
19:12 13.3 °C 6.4 °C 995.8 hPa WNW 11.6 km/h 11.6 km/h 63 % 0.0 mm open2300-1.11 W/m2
20:12 12.2 °C 6.7 °C 996.5 hPa WNW 10.3 km/h 10.3 km/h 69 % 0.0 mm open2300-1.11 W/m2
21:12 11.2 °C 6.0 °C 997.2 hPa NW 6.9 km/h 6.9 km/h 70 % 0.0 mm open2300-1.11 W/m2
22:12 10.9 °C 6.1 °C 997.5 hPa Calm     72 % 0.0 mm open2300-1.11 W/m2
23:12 10.3 °C 5.5 °C 997.9 hPa Calm   3.4 km/h 72 % 0.0 mm open2300-1.11 W/m2
Observations météo à CASSIS
WU-History script by Weather Underground - 1 mb